Terminal Aerodrome Forecast
Issued by NWS

Home | Current Version | Previous Version | Text Only | Print | Product List | Glossary On
Versions: 1 2 3 4 5 6 7 8 9 10 11 12 13 14 15 16 17 18 19
637
FTUS43 KGRR 270532
TAFMKG
TAF
KMKG 270532Z 2706/2806 VRB03KT P6SM BKN100
     FM270700 08004KT P6SM VCSH OVC050
     FM271600 14007KT P6SM VCTS OVC015CB
     FM271900 16010KT P6SM VCTS OVC025CB
     FM272200 17006KT P6SM BKN040=

USA.gov is the U.S. government's official web portal to all federal, state and local government web resources and services.